sensor_id;sensor_type;location;lat;lon;timestamp;P1;durP1;ratioP1;P2;durP2;ratioP2
49193;SDS011;35029;50.804;12.866;2023-04-01T00:01:07;4.60;;;1.30;;
49193;SDS011;35029;50.804;12.866;2023-04-01T00:03:35;8.57;;;1.35;;
49193;SDS011;35029;50.804;12.866;2023-04-01T00:06:01;6.35;;;1.52;;
49193;SDS011;35029;50.804;12.866;2023-04-01T00:08:27;7.13;;;1.25;;
49193;SDS011;35029;50.804;12.866;2023-04-01T00:10:53;4.95;;;1.27;;
49193;SDS011;35029;50.804;12.866;2023-04-01T00:13:19;4.95;;;1.45;;
49193;SDS011;35029;50.804;12.866;2023-04-01T00:15:45;4.88;;;1.33;;
49193;SDS011;35029;50.804;12.866;2023-04-01T00:18:11;5.63;;;1.63;;
49193;SDS011;35029;50.804;12.866;2023-04-01T00:20:38;4.10;;;1.25;;
49193;SDS011;35029;50.804;12.866;2023-04-01T00:23:04;4.55;;;1.83;;
49193;SDS011;35029;50.804;12.866;2023-04-01T00:25:30;2.17;;;0.98;;
49193;SDS011;35029;50.804;12.866;2023-04-01T00:27:56;4.63;;;1.08;;
49193;SDS011;35029;50.804;12.866;2023-04-01T00:30:21;2.60;;;1.30;;
49193;SDS011;35029;50.804;12.866;2023-04-01T00:32:50;4.60;;;1.35;;
49193;SDS011;35029;50.804;12.866;2023-04-01T00:35:17;3.00;;;1.13;;
49193;SDS011;35029;50.804;12.866;2023-04-01T00:37:43;5.45;;;1.35;;
49193;SDS011;35029;50.804;12.866;2023-04-01T00:40:11;5.20;;;1.38;;
49193;SDS011;35029;50.804;12.866;2023-04-01T00:42:48;4.50;;;1.08;;
49193;SDS011;35029;50.804;12.866;2023-04-01T00:45:34;2.70;;;1.20;;
49193;SDS011;35029;50.804;12.866;2023-04-01T00:48:05;3.55;;;1.20;;
49193;SDS011;35029;50.804;12.866;2023-04-01T00:50:39;5.22;;;1.30;;
49193;SDS011;35029;50.804;12.866;2023-04-01T00:53:08;2.08;;;1.08;;
49193;SDS011;35029;50.804;12.866;2023-04-01T00:55:35;3.70;;;1.23;;
49193;SDS011;35029;50.804;12.866;2023-04-01T00:58:07;3.42;;;1.27;;
49193;SDS011;35029;50.804;12.866;2023-04-01T01:00:38;8.75;;;1.45;;
49193;SDS011;35029;50.804;12.866;2023-04-01T01:03:05;3.20;;;1.05;;
49193;SDS011;35029;50.804;12.866;2023-04-01T01:05:35;4.68;;;1.45;;
49193;SDS011;35029;50.804;12.866;2023-04-01T01:08:26;2.35;;;1.10;;
49193;SDS011;35029;50.804;12.866;2023-04-01T01:10:55;5.07;;;1.77;;
49193;SDS011;35029;50.804;12.866;2023-04-01T01:13:24;5.55;;;1.50;;
49193;SDS011;35029;50.804;12.866;2023-04-01T01:16:06;7.13;;;1.95;;
49193;SDS011;35029;50.804;12.866;2023-04-01T01:18:45;10.40;;;2.05;;
49193;SDS011;35029;50.804;12.866;2023-04-01T01:27:34;4.60;;;1.27;;
49193;SDS011;35029;50.804;12.866;2023-04-01T01:30:11;7.50;;;1.67;;
49193;SDS011;35029;50.804;12.866;2023-04-01T01:35:46;3.80;;;1.48;;
49193;SDS011;35029;50.804;12.866;2023-04-01T01:38:24;4.88;;;1.50;;
49193;SDS011;35029;50.804;12.866;2023-04-01T01:41:02;4.80;;;1.20;;
49193;SDS011;35029;50.804;12.866;2023-04-01T01:43:32;4.90;;;1.60;;
49193;SDS011;35029;50.804;12.866;2023-04-01T01:46:05;4.40;;;1.40;;
49193;SDS011;35029;50.804;12.866;2023-04-01T01:48:34;6.68;;;1.80;;
49193;SDS011;35029;50.804;12.866;2023-04-01T01:51:02;7.78;;;1.42;;
49193;SDS011;35029;50.804;12.866;2023-04-01T01:53:31;8.57;;;1.45;;
49193;SDS011;35029;50.804;12.866;2023-04-01T01:55:57;4.38;;;1.42;;
49193;SDS011;35029;50.804;12.866;2023-04-01T01:58:25;7.40;;;1.80;;
49193;SDS011;35029;50.804;12.866;2023-04-01T02:00:57;6.00;;;1.63;;
49193;SDS011;35029;50.804;12.866;2023-04-01T02:03:33;4.18;;;1.23;;
49193;SDS011;35029;50.804;12.866;2023-04-01T02:06:01;4.63;;;1.50;;
49193;SDS011;35029;50.804;12.866;2023-04-01T02:08:33;6.45;;;1.55;;
49193;SDS011;35029;50.804;12.866;2023-04-01T02:11:02;4.05;;;1.10;;
49193;SDS011;35029;50.804;12.866;2023-04-01T02:13:38;4.25;;;1.10;;
49193;SDS011;35029;50.804;12.866;2023-04-01T02:16:16;7.53;;;1.98;;
49193;SDS011;35029;50.804;12.866;2023-04-01T02:18:48;5.10;;;1.65;;
49193;SDS011;35029;50.804;12.866;2023-04-01T02:21:16;3.00;;;1.35;;
49193;SDS011;35029;50.804;12.866;2023-04-01T02:23:44;6.50;;;1.70;;
49193;SDS011;35029;50.804;12.866;2023-04-01T02:26:12;6.20;;;1.75;;
49193;SDS011;35029;50.804;12.866;2023-04-01T02:28:39;5.38;;;1.80;;
49193;SDS011;35029;50.804;12.866;2023-04-01T02:31:08;8.15;;;2.08;;
49193;SDS011;35029;50.804;12.866;2023-04-01T02:33:38;7.15;;;1.52;;
49193;SDS011;35029;50.804;12.866;2023-04-01T02:36:04;7.00;;;1.63;;
49193;SDS011;35029;50.804;12.866;2023-04-01T02:38:31;6.55;;;1.85;;
49193;SDS011;35029;50.804;12.866;2023-04-01T02:40:58;3.88;;;1.40;;
49193;SDS011;35029;50.804;12.866;2023-04-01T02:43:25;3.67;;;1.40;;
49193;SDS011;35029;50.804;12.866;2023-04-01T02:45:51;9.50;;;1.83;;
49193;SDS011;35029;50.804;12.866;2023-04-01T02:48:17;7.10;;;1.60;;
49193;SDS011;35029;50.804;12.866;2023-04-01T02:50:43;5.57;;;1.90;;
49193;SDS011;35029;50.804;12.866;2023-04-01T02:53:08;5.43;;;1.25;;
49193;SDS011;35029;50.804;12.866;2023-04-01T02:55:34;8.73;;;1.75;;
49193;SDS011;35029;50.804;12.866;2023-04-01T02:58:00;4.93;;;1.55;;
49193;SDS011;35029;50.804;12.866;2023-04-01T03:00:27;7.70;;;1.35;;
49193;SDS011;35029;50.804;12.866;2023-04-01T03:02:52;5.28;;;1.50;;
49193;SDS011;35029;50.804;12.866;2023-04-01T03:05:19;4.95;;;1.75;;
49193;SDS011;35029;50.804;12.866;2023-04-01T03:07:45;6.35;;;1.98;;
49193;SDS011;35029;50.804;12.866;2023-04-01T03:10:12;4.95;;;1.65;;
49193;SDS011;35029;50.804;12.866;2023-04-01T03:12:38;5.85;;;1.10;;
49193;SDS011;35029;50.804;12.866;2023-04-01T03:15:03;4.47;;;1.05;;
49193;SDS011;35029;50.804;12.866;2023-04-01T03:17:29;6.07;;;1.38;;
49193;SDS011;35029;50.804;12.866;2023-04-01T03:19:55;4.13;;;1.10;;
49193;SDS011;35029;50.804;12.866;2023-04-01T03:22:20;4.07;;;1.35;;
49193;SDS011;35029;50.804;12.866;2023-04-01T03:24:46;3.10;;;1.38;;
49193;SDS011;35029;50.804;12.866;2023-04-01T03:27:13;4.30;;;1.35;;
49193;SDS011;35029;50.804;12.866;2023-04-01T03:29:38;7.63;;;1.60;;
49193;SDS011;35029;50.804;12.866;2023-04-01T03:32:04;7.18;;;2.03;;
49193;SDS011;35029;50.804;12.866;2023-04-01T03:34:30;2.13;;;1.00;;
49193;SDS011;35029;50.804;12.866;2023-04-01T03:36:55;3.92;;;1.02;;
49193;SDS011;35029;50.804;12.866;2023-04-01T03:39:21;3.83;;;1.50;;
49193;SDS011;35029;50.804;12.866;2023-04-01T03:41:48;3.55;;;1.00;;
49193;SDS011;35029;50.804;12.866;2023-04-01T03:44:15;9.02;;;1.63;;
49193;SDS011;35029;50.804;12.866;2023-04-01T03:46:40;5.00;;;1.38;;
49193;SDS011;35029;50.804;12.866;2023-04-01T03:49:07;4.95;;;1.40;;
49193;SDS011;35029;50.804;12.866;2023-04-01T03:51:37;4.13;;;1.47;;
49193;SDS011;35029;50.804;12.866;2023-04-01T03:54:04;3.75;;;1.23;;
49193;SDS011;35029;50.804;12.866;2023-04-01T03:56:30;3.03;;;1.25;;
49193;SDS011;35029;50.804;12.866;2023-04-01T03:58:56;4.95;;;1.85;;
49193;SDS011;35029;50.804;12.866;2023-04-01T04:01:22;6.57;;;1.50;;
49193;SDS011;35029;50.804;12.866;2023-04-01T04:03:51;6.03;;;1.25;;
49193;SDS011;35029;50.804;12.866;2023-04-01T04:06:18;3.08;;;1.30;;
49193;SDS011;35029;50.804;12.866;2023-04-01T04:08:44;3.55;;;1.45;;
49193;SDS011;35029;50.804;12.866;2023-04-01T04:11:10;4.47;;;1.45;;
49193;SDS011;35029;50.804;12.866;2023-04-01T04:13:39;4.82;;;1.65;;
49193;SDS011;35029;50.804;12.866;2023-04-01T04:16:05;3.85;;;1.00;;
49193;SDS011;35029;50.804;12.866;2023-04-01T04:18:32;7.75;;;1.60;;
49193;SDS011;35029;50.804;12.866;2023-04-01T04:20:58;5.05;;;1.52;;
49193;SDS011;35029;50.804;12.866;2023-04-01T04:23:24;5.15;;;1.55;;
49193;SDS011;35029;50.804;12.866;2023-04-01T04:25:57;11.20;;;2.10;;
49193;SDS011;35029;50.804;12.866;2023-04-01T04:28:26;5.97;;;1.40;;
49193;SDS011;35029;50.804;12.866;2023-04-01T04:30:53;3.42;;;1.45;;
49193;SDS011;35029;50.804;12.866;2023-04-01T04:33:19;3.97;;;1.48;;
49193;SDS011;35029;50.804;12.866;2023-04-01T04:35:46;5.47;;;1.25;;
49193;SDS011;35029;50.804;12.866;2023-04-01T04:38:11;5.60;;;1.60;;
49193;SDS011;35029;50.804;12.866;2023-04-01T04:40:37;6.05;;;1.58;;
49193;SDS011;35029;50.804;12.866;2023-04-01T04:43:04;4.40;;;1.60;;
49193;SDS011;35029;50.804;12.866;2023-04-01T04:45:29;3.88;;;1.52;;
49193;SDS011;35029;50.804;12.866;2023-04-01T04:47:56;4.57;;;1.83;;
49193;SDS011;35029;50.804;12.866;2023-04-01T04:50:21;3.42;;;1.50;;
49193;SDS011;35029;50.804;12.866;2023-04-01T04:52:47;5.85;;;2.05;;
49193;SDS011;35029;50.804;12.866;2023-04-01T04:55:13;3.65;;;1.20;;
49193;SDS011;35029;50.804;12.866;2023-04-01T04:57:42;4.82;;;1.20;;
49193;SDS011;35029;50.804;12.866;2023-04-01T05:00:07;4.32;;;1.40;;
49193;SDS011;35029;50.804;12.866;2023-04-01T05:02:53;7.18;;;1.83;;
49193;SDS011;35029;50.804;12.866;2023-04-01T05:05:19;4.80;;;1.27;;
49193;SDS011;35029;50.804;12.866;2023-04-01T05:07:45;6.40;;;1.42;;
49193;SDS011;35029;50.804;12.866;2023-04-01T05:10:10;4.78;;;1.48;;
49193;SDS011;35029;50.804;12.866;2023-04-01T05:12:36;5.03;;;1.70;;
49193;SDS011;35029;50.804;12.866;2023-04-01T05:15:05;7.40;;;1.67;;
49193;SDS011;35029;50.804;12.866;2023-04-01T05:17:32;6.60;;;1.85;;
49193;SDS011;35029;50.804;12.866;2023-04-01T05:19:57;4.57;;;1.20;;
49193;SDS011;35029;50.804;12.866;2023-04-01T05:22:24;2.70;;;1.40;;
49193;SDS011;35029;50.804;12.866;2023-04-01T05:24:49;6.88;;;1.30;;
49193;SDS011;35029;50.804;12.866;2023-04-01T05:27:15;6.13;;;1.55;;
49193;SDS011;35029;50.804;12.866;2023-04-01T05:29:43;4.45;;;1.27;;
49193;SDS011;35029;50.804;12.866;2023-04-01T05:32:23;3.65;;;1.30;;
49193;SDS011;35029;50.804;12.866;2023-04-01T05:34:50;3.47;;;1.42;;
49193;SDS011;35029;50.804;12.866;2023-04-01T05:37:16;7.60;;;1.63;;
49193;SDS011;35029;50.804;12.866;2023-04-01T05:39:42;7.07;;;1.45;;
49193;SDS011;35029;50.804;12.866;2023-04-01T05:42:08;6.30;;;1.42;;
49193;SDS011;35029;50.804;12.866;2023-04-01T05:44:34;7.50;;;1.60;;
49193;SDS011;35029;50.804;12.866;2023-04-01T05:47:01;4.20;;;1.10;;
49193;SDS011;35029;50.804;12.866;2023-04-01T05:49:27;3.38;;;1.10;;
49193;SDS011;35029;50.804;12.866;2023-04-01T05:51:53;7.20;;;1.40;;
49193;SDS011;35029;50.804;12.866;2023-04-01T05:54:19;5.93;;;1.42;;
49193;SDS011;35029;50.804;12.866;2023-04-01T05:56:45;3.75;;;1.48;;
49193;SDS011;35029;50.804;12.866;2023-04-01T05:59:11;3.50;;;1.20;;
49193;SDS011;35029;50.804;12.866;2023-04-01T06:01:37;5.93;;;1.23;;
49193;SDS011;35029;50.804;12.866;2023-04-01T06:04:03;5.40;;;1.45;;
49193;SDS011;35029;50.804;12.866;2023-04-01T06:06:30;5.10;;;1.40;;
49193;SDS011;35029;50.804;12.866;2023-04-01T06:09:47;2.30;;;1.17;;
49193;SDS011;35029;50.804;12.866;2023-04-01T06:20:23;6.47;;;1.52;;
49193;SDS011;35029;50.804;12.866;2023-04-01T06:26:12;3.42;;;1.33;;
49193;SDS011;35029;50.804;12.866;2023-04-01T06:29:08;2.25;;;1.35;;
49193;SDS011;35029;50.804;12.866;2023-04-01T06:52:47;3.65;;;1.20;;
49193;SDS011;35029;50.804;12.866;2023-04-01T06:55:44;2.78;;;1.30;;
49193;SDS011;35029;50.804;12.866;2023-04-01T06:58:27;5.03;;;1.02;;
49193;SDS011;35029;50.804;12.866;2023-04-01T07:01:00;3.53;;;1.15;;
49193;SDS011;35029;50.804;12.866;2023-04-01T07:03:39;3.95;;;1.00;;
49193;SDS011;35029;50.804;12.866;2023-04-01T07:06:12;3.28;;;1.33;;
49193;SDS011;35029;50.804;12.866;2023-04-01T07:08:51;4.57;;;1.35;;
49193;SDS011;35029;50.804;12.866;2023-04-01T07:11:24;5.72;;;1.30;;
49193;SDS011;35029;50.804;12.866;2023-04-01T07:14:30;2.58;;;1.13;;
49193;SDS011;35029;50.804;12.866;2023-04-01T07:17:22;1.70;;;0.93;;
49193;SDS011;35029;50.804;12.866;2023-04-01T07:19:50;3.50;;;1.55;;
49193;SDS011;35029;50.804;12.866;2023-04-01T07:22:41;7.63;;;1.50;;
49193;SDS011;35029;50.804;12.866;2023-04-01T07:25:54;3.28;;;1.10;;
49193;SDS011;35029;50.804;12.866;2023-04-01T07:28:41;4.70;;;1.50;;
49193;SDS011;35029;50.804;12.866;2023-04-01T07:31:52;3.25;;;1.30;;
49193;SDS011;35029;50.804;12.866;2023-04-01T07:37:28;6.45;;;1.38;;
49193;SDS011;35029;50.804;12.866;2023-04-01T07:45:27;4.60;;;1.02;;
49193;SDS011;35029;50.804;12.866;2023-04-01T07:53:37;2.95;;;1.02;;
49193;SDS011;35029;50.804;12.866;2023-04-01T07:56:09;5.65;;;1.35;;
49193;SDS011;35029;50.804;12.866;2023-04-01T08:06:33;4.80;;;1.20;;
49193;SDS011;35029;50.804;12.866;2023-04-01T08:21:00;5.30;;;1.60;;
49193;SDS011;35029;50.804;12.866;2023-04-01T08:23:43;3.83;;;1.08;;
49193;SDS011;35029;50.804;12.866;2023-04-01T08:26:23;5.00;;;1.23;;
49193;SDS011;35029;50.804;12.866;2023-04-01T08:29:19;5.00;;;1.33;;
49193;SDS011;35029;50.804;12.866;2023-04-01T08:34:40;3.15;;;1.10;;
49193;SDS011;35029;50.804;12.866;2023-04-01T08:37:24;2.00;;;1.10;;
49193;SDS011;35029;50.804;12.866;2023-04-01T08:40:01;2.70;;;1.33;;
49193;SDS011;35029;50.804;12.866;2023-04-01T08:42:58;4.43;;;1.00;;
49193;SDS011;35029;50.804;12.866;2023-04-01T08:50:52;1.88;;;0.77;;
49193;SDS011;35029;50.804;12.866;2023-04-01T08:58:42;3.33;;;0.95;;
49193;SDS011;35029;50.804;12.866;2023-04-01T09:21:03;1.85;;;0.90;;
49193;SDS011;35029;50.804;12.866;2023-04-01T09:24:34;2.08;;;1.00;;
49193;SDS011;35029;50.804;12.866;2023-04-01T09:40:57;4.10;;;0.80;;
49193;SDS011;35029;50.804;12.866;2023-04-01T10:00:35;5.63;;;3.50;;
49193;SDS011;35029;50.804;12.866;2023-04-01T10:30:05;14.77;;;8.35;;
49193;SDS011;35029;50.804;12.866;2023-04-01T10:39:02;3.30;;;1.60;;
49193;SDS011;35029;50.804;12.866;2023-04-01T10:49:48;2.42;;;0.98;;
49193;SDS011;35029;50.804;12.866;2023-04-01T10:58:43;9.55;;;4.90;;
49193;SDS011;35029;50.804;12.866;2023-04-01T11:33:41;2.55;;;1.17;;
49193;SDS011;35029;50.804;12.866;2023-04-01T11:37:01;5.15;;;1.30;;
49193;SDS011;35029;50.804;12.866;2023-04-01T11:39:24;1.95;;;0.80;;
49193;SDS011;35029;50.804;12.866;2023-04-01T11:45:39;2.05;;;0.70;;
49193;SDS011;35029;50.804;12.866;2023-04-01T11:51:29;3.20;;;1.58;;
49193;SDS011;35029;50.804;12.866;2023-04-01T12:03:02;9.43;;;4.95;;
49193;SDS011;35029;50.804;12.866;2023-04-01T12:05:54;10.38;;;5.43;;
49193;SDS011;35029;50.804;12.866;2023-04-01T12:17:15;1.98;;;0.95;;
49193;SDS011;35029;50.804;12.866;2023-04-01T12:19:51;3.80;;;1.70;;
49193;SDS011;35029;50.804;12.866;2023-04-01T12:24:57;2.05;;;0.98;;
49193;SDS011;35029;50.804;12.866;2023-04-01T12:27:49;2.70;;;0.70;;
49193;SDS011;35029;50.804;12.866;2023-04-01T12:30:30;2.08;;;0.80;;
49193;SDS011;35029;50.804;12.866;2023-04-01T12:38:35;1.65;;;1.00;;
49193;SDS011;35029;50.804;12.866;2023-04-01T12:41:24;1.70;;;0.80;;
49193;SDS011;35029;50.804;12.866;2023-04-01T12:44:06;2.65;;;1.00;;
49193;SDS011;35029;50.804;12.866;2023-04-01T12:52:35;5.18;;;1.63;;
49193;SDS011;35029;50.804;12.866;2023-04-01T13:09:49;5.63;;;2.60;;
49193;SDS011;35029;50.804;12.866;2023-04-01T13:12:59;4.10;;;1.50;;
49193;SDS011;35029;50.804;12.866;2023-04-01T13:28:43;3.40;;;0.77;;
49193;SDS011;35029;50.804;12.866;2023-04-01T13:34:16;2.38;;;1.10;;
49193;SDS011;35029;50.804;12.866;2023-04-01T13:39:34;4.82;;;1.30;;
49193;SDS011;35029;50.804;12.866;2023-04-01T13:42:06;4.63;;;1.03;;
49193;SDS011;35029;50.804;12.866;2023-04-01T14:25:14;0.98;;;0.70;;
49193;SDS011;35029;50.804;12.866;2023-04-01T14:39:00;1.70;;;1.05;;
49193;SDS011;35029;50.804;12.866;2023-04-01T14:44:18;2.17;;;0.60;;
49193;SDS011;35029;50.804;12.866;2023-04-01T14:52:42;3.42;;;2.22;;
49193;SDS011;35029;50.804;12.866;2023-04-01T14:55:23;9.05;;;5.97;;
49193;SDS011;35029;50.804;12.866;2023-04-01T14:57:57;7.43;;;4.50;;
49193;SDS011;35029;50.804;12.866;2023-04-01T15:00:43;5.57;;;4.07;;
49193;SDS011;35029;50.804;12.866;2023-04-01T15:03:22;7.38;;;2.95;;
49193;SDS011;35029;50.804;12.866;2023-04-01T15:08:43;8.10;;;4.53;;
49193;SDS011;35029;50.804;12.866;2023-04-01T15:11:32;11.88;;;6.82;;
49193;SDS011;35029;50.804;12.866;2023-04-01T15:30:06;5.78;;;2.22;;
49193;SDS011;35029;50.804;12.866;2023-04-01T15:38:14;2.95;;;1.35;;
49193;SDS011;35029;50.804;12.866;2023-04-01T15:49:04;0.60;;;0.60;;
49193;SDS011;35029;50.804;12.866;2023-04-01T16:04:59;3.92;;;0.93;;
49193;SDS011;35029;50.804;12.866;2023-04-01T16:21:58;1.02;;;0.77;;
49193;SDS011;35029;50.804;12.866;2023-04-01T16:32:51;1.50;;;1.00;;
49193;SDS011;35029;50.804;12.866;2023-04-01T16:40:40;1.45;;;1.13;;
49193;SDS011;35029;50.804;12.866;2023-04-01T16:51:34;1.35;;;0.80;;
49193;SDS011;35029;50.804;12.866;2023-04-01T17:00:37;1.77;;;1.00;;
49193;SDS011;35029;50.804;12.866;2023-04-01T17:05:39;2.20;;;1.30;;
49193;SDS011;35029;50.804;12.866;2023-04-01T17:10:51;2.10;;;1.70;;
49193;SDS011;35029;50.804;12.866;2023-04-01T17:13:31;2.00;;;1.77;;
49193;SDS011;35029;50.804;12.866;2023-04-01T17:16:04;2.92;;;1.80;;
49193;SDS011;35029;50.804;12.866;2023-04-01T17:23:58;2.90;;;1.63;;
49193;SDS011;35029;50.804;12.866;2023-04-01T17:34:45;1.33;;;1.00;;
49193;SDS011;35029;50.804;12.866;2023-04-01T17:43:00;3.15;;;1.23;;
49193;SDS011;35029;50.804;12.866;2023-04-01T17:45:44;1.90;;;1.17;;
49193;SDS011;35029;50.804;12.866;2023-04-01T17:48:24;1.35;;;1.10;;
49193;SDS011;35029;50.804;12.866;2023-04-01T18:21:51;5.85;;;5.05;;
49193;SDS011;35029;50.804;12.866;2023-04-01T18:29:28;4.57;;;2.65;;
49193;SDS011;35029;50.804;12.866;2023-04-01T18:32:11;11.75;;;6.45;;
49193;SDS011;35029;50.804;12.866;2023-04-01T18:37:47;16.75;;;7.93;;
49193;SDS011;35029;50.804;12.866;2023-04-01T18:40:25;16.88;;;9.93;;
49193;SDS011;35029;50.804;12.866;2023-04-01T18:43:00;17.65;;;9.82;;
49193;SDS011;35029;50.804;12.866;2023-04-01T18:45:54;12.68;;;7.72;;
49193;SDS011;35029;50.804;12.866;2023-04-01T18:53:58;6.15;;;4.10;;
49193;SDS011;35029;50.804;12.866;2023-04-01T18:56:48;6.22;;;4.57;;
49193;SDS011;35029;50.804;12.866;2023-04-01T19:04:43;4.68;;;3.28;;
49193;SDS011;35029;50.804;12.866;2023-04-01T19:15:44;2.73;;;2.03;;
49193;SDS011;35029;50.804;12.866;2023-04-01T19:21:18;3.33;;;2.30;;
49193;SDS011;35029;50.804;12.866;2023-04-01T19:28:56;3.25;;;2.03;;
49193;SDS011;35029;50.804;12.866;2023-04-01T19:34:42;4.28;;;2.20;;
49193;SDS011;35029;50.804;12.866;2023-04-01T19:37:11;7.85;;;3.72;;
49193;SDS011;35029;50.804;12.866;2023-04-01T19:51:06;3.92;;;2.78;;
49193;SDS011;35029;50.804;12.866;2023-04-01T20:00:58;14.95;;;9.32;;
49193;SDS011;35029;50.804;12.866;2023-04-01T20:06:17;4.88;;;4.00;;
49193;SDS011;35029;50.804;12.866;2023-04-01T20:14:20;3.60;;;2.88;;
49193;SDS011;35029;50.804;12.866;2023-04-01T20:19:39;3.28;;;2.70;;
49193;SDS011;35029;50.804;12.866;2023-04-01T20:25:15;3.13;;;2.78;;
49193;SDS011;35029;50.804;12.866;2023-04-01T20:30:50;3.65;;;3.25;;
49193;SDS011;35029;50.804;12.866;2023-04-01T20:52:56;3.53;;;2.40;;
49193;SDS011;35029;50.804;12.866;2023-04-01T21:00:52;3.85;;;2.30;;
49193;SDS011;35029;50.804;12.866;2023-04-01T21:12:12;2.78;;;2.40;;
49193;SDS011;35029;50.804;12.866;2023-04-01T21:28:38;2.72;;;2.50;;
49193;SDS011;35029;50.804;12.866;2023-04-01T21:39:42;3.97;;;3.58;;
49193;SDS011;35029;50.804;12.866;2023-04-01T22:11:08;2.50;;;2.20;;
49193;SDS011;35029;50.804;12.866;2023-04-01T22:13:59;2.88;;;2.42;;
49193;SDS011;35029;50.804;12.866;2023-04-01T22:24:51;2.92;;;2.03;;
49193;SDS011;35029;50.804;12.866;2023-04-01T22:33:07;1.90;;;1.80;;
49193;SDS011;35029;50.804;12.866;2023-04-01T22:41:05;3.55;;;2.83;;
49193;SDS011;35029;50.804;12.866;2023-04-01T22:43:42;2.47;;;2.22;;
49193;SDS011;35029;50.804;12.866;2023-04-01T22:46:46;1.95;;;1.85;;
49193;SDS011;35029;50.804;12.866;2023-04-01T22:52:04;3.05;;;2.38;;
49193;SDS011;35029;50.804;12.866;2023-04-01T22:54:39;2.30;;;2.10;;
49193;SDS011;35029;50.804;12.866;2023-04-01T23:00:28;2.90;;;2.60;;
49193;SDS011;35029;50.804;12.866;2023-04-01T23:03:13;2.85;;;1.92;;
49193;SDS011;35029;50.804;12.866;2023-04-01T23:05:49;2.58;;;1.55;;
49193;SDS011;35029;50.804;12.866;2023-04-01T23:10:56;1.23;;;1.10;;
49193;SDS011;35029;50.804;12.866;2023-04-01T23:13:27;1.33;;;1.20;;
49193;SDS011;35029;50.804;12.866;2023-04-01T23:15:57;1.65;;;1.40;;
49193;SDS011;35029;50.804;12.866;2023-04-01T23:29:16;1.45;;;1.33;;
49193;SDS011;35029;50.804;12.866;2023-04-01T23:31:58;1.33;;;1.23;;
49193;SDS011;35029;50.804;12.866;2023-04-01T23:34:26;2.15;;;1.95;;
49193;SDS011;35029;50.804;12.866;2023-04-01T23:36:58;1.75;;;1.65;;
49193;SDS011;35029;50.804;12.866;2023-04-01T23:39:32;2.00;;;1.90;;
49193;SDS011;35029;50.804;12.866;2023-04-01T23:42:43;2.47;;;1.92;;
49193;SDS011;35029;50.804;12.866;2023-04-01T23:44:53;2.05;;;1.85;;
49193;SDS011;35029;50.804;12.866;2023-04-01T23:47:23;2.20;;;2.00;;
49193;SDS011;35029;50.804;12.866;2023-04-01T23:49:59;2.25;;;2.00;;
49193;SDS011;35029;50.804;12.866;2023-04-01T23:52:36;2.40;;;2.20;;
